createdAt,value
2023-11-13T00:01:55.792Z,2.82
2023-11-13T00:04:22.930Z,2.81
2023-11-13T00:06:50.141Z,2.77
2023-11-13T00:09:17.256Z,2.76
2023-11-13T00:11:45.025Z,2.78
2023-11-13T00:14:12.304Z,2.77
2023-11-13T00:16:39.517Z,2.78
2023-11-13T00:19:06.740Z,2.74
2023-11-13T00:21:34.275Z,2.75
2023-11-13T00:24:01.429Z,2.83
2023-11-13T00:26:28.507Z,2.84
2023-11-13T00:28:56.509Z,2.87
2023-11-13T00:31:23.780Z,2.83
2023-11-13T00:33:51.035Z,2.79
2023-11-13T00:36:18.154Z,2.79
2023-11-13T00:38:45.313Z,2.80
2023-11-13T00:41:12.946Z,2.83
2023-11-13T00:43:40.510Z,2.78
2023-11-13T00:46:08.244Z,2.77
2023-11-13T00:48:38.731Z,2.74
2023-11-13T00:51:06.018Z,2.72
2023-11-13T00:53:37.861Z,2.74
2023-11-13T00:56:05.740Z,2.77
2023-11-13T00:58:36.945Z,2.72
2023-11-13T01:01:08.206Z,2.69
2023-11-13T01:03:36.117Z,2.73
2023-11-13T01:06:03.999Z,2.72
2023-11-13T01:08:31.297Z,2.72
2023-11-13T01:10:58.491Z,2.65
2023-11-13T01:13:25.761Z,2.64
2023-11-13T01:15:55.910Z,2.57
2023-11-13T01:18:24.584Z,2.53
2023-11-13T01:20:51.832Z,2.53
2023-11-13T01:23:19.231Z,2.54
2023-11-13T01:25:49.013Z,2.54
2023-11-13T01:28:17.167Z,2.58
2023-11-13T01:30:44.504Z,2.62
2023-11-13T01:33:13.082Z,2.63
2023-11-13T01:35:40.239Z,2.63
2023-11-13T01:38:07.322Z,2.64
2023-11-13T01:40:34.478Z,2.67
2023-11-13T01:43:01.661Z,2.72
2023-11-13T01:45:28.865Z,2.76
2023-11-13T01:47:56.073Z,2.77
2023-11-13T01:50:23.186Z,2.77
2023-11-13T01:52:51.624Z,2.75
2023-11-13T01:55:18.954Z,2.80
2023-11-13T01:57:46.125Z,2.80
2023-11-13T02:00:14.439Z,2.77
2023-11-13T02:02:42.225Z,2.74
2023-11-13T02:05:09.556Z,2.71
2023-11-13T02:07:37.339Z,2.69
2023-11-13T02:10:05.983Z,2.68
2023-11-13T02:12:33.619Z,2.68
2023-11-13T02:15:00.910Z,2.70
2023-11-13T02:17:28.094Z,2.68
2023-11-13T02:19:55.298Z,2.70
2023-11-13T02:22:22.994Z,2.69
2023-11-13T02:24:51.673Z,2.69
2023-11-13T02:27:19.655Z,2.72
2023-11-13T02:29:47.077Z,2.74
2023-11-13T02:32:14.336Z,2.71
2023-11-13T02:34:43.191Z,2.73
2023-11-13T02:37:10.717Z,2.75
2023-11-13T02:39:38.710Z,2.75
2023-11-13T02:42:05.946Z,2.76
2023-11-13T02:44:33.023Z,2.74
2023-11-13T02:47:00.200Z,2.74
2023-11-13T02:49:27.715Z,2.70
2023-11-13T02:51:54.996Z,2.70
2023-11-13T02:57:24.740Z,2.69
2023-11-13T02:59:52.168Z,2.71
2023-11-13T03:02:20.531Z,2.71
2023-11-13T03:04:47.642Z,2.73
2023-11-13T03:07:15.426Z,2.69
2023-11-13T03:09:42.633Z,2.73
2023-11-13T03:12:09.890Z,2.74
2023-11-13T03:14:37.087Z,2.72
2023-11-13T03:17:04.364Z,2.73
2023-11-13T03:19:31.466Z,2.76
2023-11-13T03:21:58.687Z,2.77
2023-11-13T03:24:25.866Z,2.77
2023-11-13T03:26:53.060Z,2.74
2023-11-13T03:29:20.226Z,2.77
2023-11-13T03:31:47.563Z,2.77
2023-11-13T03:34:14.903Z,2.78
2023-11-13T03:36:42.067Z,2.78
2023-11-13T03:39:09.599Z,2.77
2023-11-13T03:41:36.752Z,2.74
2023-11-13T03:44:04.381Z,2.75
2023-11-13T03:46:31.703Z,2.76
2023-11-13T03:48:58.997Z,2.77
2023-11-13T03:51:26.392Z,2.78
2023-11-13T03:53:53.795Z,2.80
2023-11-13T03:56:21.856Z,2.78
2023-11-13T03:58:49.136Z,2.76
2023-11-13T04:01:16.983Z,2.76
2023-11-13T04:03:44.399Z,2.78
2023-11-13T04:06:11.645Z,2.79
2023-11-13T04:08:38.830Z,2.82
2023-11-13T04:11:08.262Z,2.78
2023-11-13T04:13:36.738Z,2.77
2023-11-13T04:16:04.460Z,2.81
2023-11-13T04:18:34.665Z,2.76
2023-11-13T04:21:01.983Z,2.71
2023-11-13T04:23:29.168Z,2.72
2023-11-13T04:25:56.282Z,2.71
2023-11-13T04:28:23.613Z,2.74
2023-11-13T04:30:50.879Z,2.72
2023-11-13T04:33:18.127Z,2.73
2023-11-13T04:35:45.285Z,2.74
2023-11-13T04:38:12.370Z,2.79
2023-11-13T04:40:39.549Z,2.79
2023-11-13T04:43:07.546Z,2.78
2023-11-13T04:45:36.613Z,2.79
2023-11-13T04:48:04.057Z,2.81
2023-11-13T04:50:31.203Z,2.85
2023-11-13T04:52:58.297Z,2.84
2023-11-13T04:55:25.473Z,2.82
2023-11-13T04:57:52.705Z,2.85
2023-11-13T05:00:20.843Z,2.84
2023-11-13T05:02:48.043Z,2.84
2023-11-13T05:05:17.199Z,2.85
2023-11-13T05:07:44.317Z,2.85
2023-11-13T05:10:12.784Z,2.86
2023-11-13T05:12:40.037Z,2.82
2023-11-13T05:15:07.375Z,2.82
2023-11-13T05:17:38.517Z,2.79
2023-11-13T05:20:09.012Z,2.81
2023-11-13T05:22:36.124Z,2.81
2023-11-13T05:25:04.619Z,2.85
2023-11-13T05:27:31.830Z,2.80
2023-11-13T05:29:59.017Z,2.86
2023-11-13T05:32:26.245Z,2.88
2023-11-13T05:34:53.487Z,2.87
2023-11-13T05:37:20.743Z,2.85
2023-11-13T05:39:47.897Z,2.87
2023-11-13T05:42:15.045Z,2.87
2023-11-13T05:44:42.197Z,2.87
2023-11-13T05:47:09.507Z,2.87
2023-11-13T05:49:37.694Z,2.90
2023-11-13T05:52:05.070Z,2.93
2023-11-13T05:54:32.241Z,2.95
2023-11-13T05:56:59.310Z,2.96
2023-11-13T05:59:26.379Z,2.95
2023-11-13T06:01:53.480Z,2.94
2023-11-13T06:04:20.701Z,2.95
2023-11-13T06:06:47.867Z,2.95
2023-11-13T06:09:15.055Z,2.94
2023-11-13T06:11:43.614Z,2.97
2023-11-13T06:14:10.738Z,2.96
2023-11-13T06:16:39.146Z,2.93
2023-11-13T06:19:09.388Z,2.96
2023-11-13T06:21:36.539Z,2.98
2023-11-13T06:24:04.737Z,2.98
2023-11-13T06:26:31.994Z,2.98
2023-11-13T06:28:59.161Z,2.99
2023-11-13T06:31:27.518Z,2.98
2023-11-13T06:33:55.131Z,3.01
2023-11-13T06:36:22.355Z,3.01
2023-11-13T06:38:50.436Z,3.04
2023-11-13T06:41:17.560Z,3.07
2023-11-13T06:43:44.670Z,3.09
2023-11-13T06:46:12.771Z,3.04
2023-11-13T06:48:40.258Z,3.07
2023-11-13T06:51:10.878Z,3.07
2023-11-13T06:53:38.271Z,3.09
2023-11-13T06:56:07.741Z,3.09
2023-11-13T06:58:37.350Z,3.11
2023-11-13T07:01:04.971Z,3.11
2023-11-13T07:03:32.361Z,3.16
2023-11-13T07:05:59.464Z,3.17
2023-11-13T07:08:26.728Z,3.21
2023-11-13T07:10:53.861Z,3.25
2023-11-13T07:13:21.108Z,3.27
2023-11-13T07:15:48.611Z,3.29
2023-11-13T07:18:18.431Z,3.30
2023-11-13T07:20:46.537Z,3.32
2023-11-13T07:23:18.263Z,3.39
2023-11-13T07:25:45.807Z,3.40
2023-11-13T07:28:16.521Z,3.49
2023-11-13T07:30:45.181Z,3.51
2023-11-13T07:33:12.443Z,3.59
2023-11-13T07:35:41.564Z,3.63
2023-11-13T07:38:08.958Z,3.63
2023-11-13T07:40:39.511Z,3.65
2023-11-13T07:43:10.030Z,3.72
2023-11-13T07:45:39.548Z,3.74
2023-11-13T07:48:07.052Z,3.78
2023-11-13T07:50:56.186Z,3.80
2023-11-13T07:53:21.414Z,3.83
2023-11-13T07:55:48.490Z,3.85
2023-11-13T07:58:15.638Z,3.87
2023-11-13T08:00:42.770Z,3.87
2023-11-13T08:03:09.851Z,3.88
2023-11-13T08:05:37.400Z,3.96
2023-11-13T08:08:04.752Z,3.98
2023-11-13T08:10:33.478Z,4.01
2023-11-13T08:13:02.325Z,4.03
2023-11-13T08:15:30.959Z,4.07
2023-11-13T08:17:58.346Z,4.12
2023-11-13T08:20:29.171Z,4.16
2023-11-13T08:22:59.127Z,4.19
2023-11-13T08:25:26.688Z,4.20
2023-11-13T08:27:54.011Z,4.24
2023-11-13T08:30:24.271Z,4.28
2023-11-13T08:32:54.161Z,4.30
2023-11-13T08:35:21.342Z,4.37
2023-11-13T08:37:52.051Z,4.43
2023-11-13T08:40:24.817Z,4.52
2023-11-13T08:42:52.535Z,4.53
2023-11-13T08:45:19.729Z,4.58
2023-11-13T08:47:48.687Z,4.67
2023-11-13T08:50:19.600Z,4.68
2023-11-13T08:52:48.105Z,4.75
2023-11-13T08:55:18.494Z,4.81
2023-11-13T08:57:46.923Z,4.87
2023-11-13T09:00:21.991Z,5.09
2023-11-13T09:02:55.989Z,5.24
2023-11-13T09:05:29.934Z,5.39
2023-11-13T09:07:57.631Z,5.51
2023-11-13T09:10:28.626Z,5.55
2023-11-13T09:13:00.535Z,5.69
2023-11-13T09:15:30.370Z,5.70
2023-11-13T09:18:07.515Z,5.73
2023-11-13T09:20:35.965Z,5.80
2023-11-13T09:23:05.331Z,5.83
2023-11-13T09:25:33.480Z,5.88
2023-11-13T09:28:01.313Z,5.98
2023-11-13T09:30:28.615Z,5.99
2023-11-13T09:32:57.140Z,6.06
2023-11-13T09:35:25.861Z,6.04
2023-11-13T09:37:54.625Z,6.14
2023-11-13T09:40:26.666Z,6.18
2023-11-13T09:43:07.367Z,6.17
2023-11-13T09:45:42.473Z,6.23
2023-11-13T09:48:09.843Z,6.17
2023-11-13T09:50:39.967Z,6.22
2023-11-13T09:53:08.829Z,6.28
2023-11-13T09:55:36.390Z,6.31
2023-11-13T09:58:03.668Z,6.30
2023-11-13T10:00:34.272Z,6.31
2023-11-13T10:03:01.672Z,6.31
2023-11-13T10:05:32.115Z,6.31
2023-11-13T10:07:59.396Z,6.34
2023-11-13T10:10:28.272Z,6.38
2023-11-13T10:12:57.050Z,6.40
2023-11-13T10:15:25.506Z,6.48
2023-11-13T10:17:57.711Z,6.54
2023-11-13T10:20:27.460Z,6.56
2023-11-13T10:23:05.072Z,6.62
2023-11-13T10:25:49.006Z,6.58
2023-11-13T10:28:18.705Z,6.65
2023-11-13T10:30:52.180Z,6.67
2023-11-13T10:33:19.838Z,6.79
2023-11-13T10:35:49.657Z,6.79
2023-11-13T10:38:17.491Z,6.80
2023-11-13T10:40:59.271Z,6.82
2023-11-13T10:43:30.016Z,6.82
2023-11-13T10:45:57.474Z,6.87
2023-11-13T10:48:33.134Z,6.93
2023-11-13T10:51:04.851Z,6.94
2023-11-13T10:53:40.423Z,6.95
2023-11-13T10:56:08.589Z,6.96
2023-11-13T10:58:35.780Z,6.97
2023-11-13T11:01:14.610Z,6.95
2023-11-13T11:03:46.380Z,6.97
2023-11-13T11:06:17.409Z,6.99
2023-11-13T11:08:45.610Z,7.00
2023-11-13T11:11:13.926Z,7.00
2023-11-13T11:13:45.826Z,7.03
2023-11-13T11:16:16.357Z,7.02
2023-11-13T11:19:05.853Z,7.03
2023-11-13T11:21:51.245Z,7.02
2023-11-13T11:24:21.333Z,7.04
2023-11-13T11:26:55.608Z,7.06
2023-11-13T11:29:33.146Z,7.07
2023-11-13T11:32:02.121Z,7.00
2023-11-13T11:34:32.165Z,6.99
2023-11-13T11:37:00.406Z,6.99
2023-11-13T11:39:28.133Z,7.00
2023-11-13T11:41:55.945Z,7.01
2023-11-13T11:44:43.030Z,7.02
2023-11-13T11:47:22.666Z,7.04
2023-11-13T11:49:51.263Z,7.04
2023-11-13T11:52:18.585Z,7.03
2023-11-13T11:54:47.133Z,7.03
2023-11-13T11:57:15.631Z,7.01
2023-11-13T11:59:45.240Z,7.08
2023-11-13T12:02:12.351Z,7.06
2023-11-13T12:04:39.790Z,7.09
2023-11-13T12:07:10.604Z,7.09
2023-11-13T12:09:41.630Z,7.09
2023-11-13T12:12:09.268Z,7.08
2023-11-13T12:14:36.448Z,7.10
2023-11-13T12:17:04.713Z,7.08
2023-11-13T12:19:32.002Z,7.10
2023-11-13T12:21:59.128Z,7.15
2023-11-13T12:24:26.408Z,7.15
2023-11-13T12:26:57.510Z,7.25
2023-11-13T12:29:24.661Z,7.27
2023-11-13T12:31:57.200Z,7.32
2023-11-13T12:34:25.517Z,7.39
2023-11-13T12:36:52.698Z,7.38
2023-11-13T12:39:27.393Z,7.45
2023-11-13T12:41:54.795Z,7.52
2023-11-13T12:44:23.989Z,7.58
2023-11-13T12:46:51.667Z,7.61
2023-11-13T12:49:19.007Z,7.60
2023-11-13T12:51:50.193Z,7.68
2023-11-13T12:54:17.492Z,7.78
2023-11-13T12:56:48.718Z,7.81
2023-11-13T12:59:19.214Z,7.85
2023-11-13T13:01:47.282Z,7.94
2023-11-13T13:04:16.727Z,7.97
2023-11-13T13:06:44.512Z,8.00
2023-11-13T13:09:13.264Z,8.01
2023-11-13T13:11:42.109Z,8.16
2023-11-13T13:14:10.022Z,8.17
2023-11-13T13:16:40.263Z,8.19
2023-11-13T13:19:10.478Z,8.30
2023-11-13T13:21:37.872Z,8.38
2023-11-13T13:24:08.428Z,8.34
2023-11-13T13:26:40.155Z,8.49
2023-11-13T13:29:09.990Z,8.55
2023-11-13T13:31:37.457Z,8.68
2023-11-13T13:34:06.310Z,8.69
2023-11-13T13:36:33.495Z,8.74
2023-11-13T13:39:00.615Z,8.74
2023-11-13T13:41:27.898Z,8.79
2023-11-13T13:43:56.080Z,8.77
2023-11-13T13:46:23.645Z,8.75
2023-11-13T13:48:51.526Z,8.72
2023-11-13T13:51:18.686Z,8.80
2023-11-13T13:53:47.797Z,8.91
2023-11-13T13:56:21.235Z,8.89
2023-11-13T13:58:48.721Z,8.80
2023-11-13T14:01:16.295Z,8.90
2023-11-13T14:03:44.847Z,8.91
2023-11-13T14:06:16.456Z,9.08
2023-11-13T14:08:46.097Z,9.08
2023-11-13T14:11:13.314Z,9.07
2023-11-13T14:13:40.611Z,9.03
2023-11-13T14:16:09.401Z,9.01
2023-11-13T14:18:39.082Z,9.01
2023-11-13T14:21:12.349Z,9.03
2023-11-13T14:23:43.215Z,8.99
2023-11-13T14:26:16.272Z,8.94
2023-11-13T14:28:44.008Z,8.92
2023-11-13T14:31:11.364Z,8.97
2023-11-13T14:33:40.129Z,9.00
2023-11-13T14:36:09.189Z,9.08
2023-11-13T14:38:36.502Z,9.07
2023-11-13T14:41:06.420Z,9.13
2023-11-13T14:43:33.647Z,9.21
2023-11-13T14:46:03.919Z,9.27
2023-11-13T14:48:32.316Z,9.27
2023-11-13T14:50:59.595Z,9.27
2023-11-13T14:53:26.733Z,9.32
2023-11-13T14:55:54.015Z,9.37
2023-11-13T14:58:21.266Z,9.40
2023-11-13T15:00:49.910Z,9.41
2023-11-13T15:03:17.258Z,9.34
2023-11-13T15:05:45.213Z,9.27
2023-11-13T15:08:13.362Z,9.16
2023-11-13T15:10:40.535Z,9.19
2023-11-13T15:13:09.348Z,9.26
2023-11-13T15:15:36.661Z,9.27
2023-11-13T15:18:05.128Z,9.50
2023-11-13T15:20:33.044Z,9.40
2023-11-13T15:23:15.229Z,9.43
2023-11-13T15:25:49.423Z,9.32
2023-11-13T15:28:16.808Z,9.44
2023-11-13T15:30:44.031Z,9.36
2023-11-13T15:33:11.205Z,9.41
2023-11-13T15:35:39.608Z,9.40
2023-11-13T15:38:06.729Z,9.44
2023-11-13T15:40:34.848Z,9.45
2023-11-13T15:43:02.302Z,9.43
2023-11-13T15:45:29.512Z,9.51
2023-11-13T15:47:58.766Z,9.49
2023-11-13T15:50:28.330Z,9.46
2023-11-13T15:52:55.377Z,9.45
2023-11-13T15:55:22.593Z,9.42
2023-11-13T15:57:49.699Z,9.48
2023-11-13T16:00:17.177Z,9.50
2023-11-13T16:02:48.170Z,9.48
2023-11-13T16:05:16.541Z,9.61
2023-11-13T16:07:43.852Z,9.56
2023-11-13T16:10:11.285Z,9.52
2023-11-13T16:12:42.102Z,9.55
2023-11-13T16:15:11.204Z,9.53
2023-11-13T16:17:38.642Z,9.48
2023-11-13T16:20:11.024Z,9.61
2023-11-13T16:22:38.808Z,9.62
2023-11-13T16:25:08.756Z,9.66
2023-11-13T16:27:38.371Z,9.64
2023-11-13T16:30:07.719Z,9.63
2023-11-13T16:32:36.038Z,9.68
2023-11-13T16:35:04.189Z,9.66
2023-11-13T16:37:31.342Z,9.74
2023-11-13T16:40:00.365Z,9.68
2023-11-13T16:42:28.507Z,9.70
2023-11-13T16:44:55.850Z,9.68
2023-11-13T16:47:23.355Z,9.69
2023-11-13T16:49:52.156Z,9.76
2023-11-13T16:52:19.608Z,9.78
2023-11-13T16:54:47.754Z,9.78
2023-11-13T16:57:15.088Z,9.78
2023-11-13T16:59:42.237Z,9.82
2023-11-13T17:02:09.343Z,9.85
2023-11-13T17:04:36.598Z,9.88
2023-11-13T17:07:03.835Z,9.83
2023-11-13T17:09:30.933Z,9.89
2023-11-13T17:11:58.078Z,9.81
2023-11-13T17:14:25.225Z,9.89
2023-11-13T17:16:55.283Z,9.93
2023-11-13T17:19:22.471Z,9.91
2023-11-13T17:21:50.343Z,9.91
2023-11-13T17:24:17.890Z,9.98
2023-11-13T17:26:45.318Z,10.00
2023-11-13T17:29:12.498Z,10.09
2023-11-13T17:31:40.160Z,10.10
2023-11-13T17:34:08.274Z,10.06
2023-11-13T17:36:35.346Z,10.21
2023-11-13T17:39:02.507Z,10.26
2023-11-13T17:41:30.321Z,10.25
2023-11-13T17:43:58.761Z,10.27
2023-11-13T17:46:26.043Z,10.25
2023-11-13T17:48:53.240Z,10.24
2023-11-13T17:51:21.661Z,10.18
2023-11-13T17:53:49.113Z,10.22
2023-11-13T17:56:16.234Z,10.30
2023-11-13T17:58:43.369Z,10.32
2023-11-13T18:01:11.617Z,10.31
2023-11-13T18:03:38.892Z,10.31
2023-11-13T18:06:06.328Z,10.32
2023-11-13T18:08:33.464Z,10.33
2023-11-13T18:11:00.532Z,10.22
2023-11-13T18:13:31.283Z,10.23
2023-11-13T18:15:58.591Z,10.24
2023-11-13T18:18:27.547Z,10.28
2023-11-13T18:20:54.890Z,10.26
2023-11-13T18:23:22.284Z,10.27
2023-11-13T18:25:51.213Z,10.32
2023-11-13T18:28:21.998Z,10.33
2023-11-13T18:30:51.587Z,10.34
2023-11-13T18:33:19.733Z,10.34
2023-11-13T18:35:46.800Z,10.32
2023-11-13T18:38:13.939Z,10.36
2023-11-13T18:40:41.144Z,10.32
2023-11-13T18:43:08.342Z,10.31
2023-11-13T18:45:35.480Z,10.32
2023-11-13T18:48:02.668Z,10.29
2023-11-13T18:50:29.801Z,10.31
2023-11-13T18:52:57.606Z,10.27
2023-11-13T18:55:25.287Z,10.23
2023-11-13T18:57:52.517Z,10.23
2023-11-13T19:00:19.902Z,10.23
2023-11-13T19:02:48.418Z,10.31
2023-11-13T19:05:15.815Z,10.38
2023-11-13T19:07:43.225Z,10.35
2023-11-13T19:10:10.478Z,10.35
2023-11-13T19:12:38.176Z,10.33
2023-11-13T19:15:05.539Z,10.28
2023-11-13T19:17:35.024Z,10.32
2023-11-13T19:20:02.330Z,10.35
2023-11-13T19:22:29.460Z,10.25
2023-11-13T19:24:56.559Z,10.28
2023-11-13T19:27:24.289Z,10.29
2023-11-13T19:29:51.420Z,10.38
2023-11-13T19:32:18.511Z,10.40
2023-11-13T19:34:45.686Z,10.40
2023-11-13T19:37:13.038Z,10.44
2023-11-13T19:39:40.193Z,10.41
2023-11-13T19:42:07.383Z,10.37
2023-11-13T19:44:44.525Z,10.40
2023-11-13T19:47:18.108Z,10.39
2023-11-13T19:49:46.845Z,10.42
2023-11-13T19:52:16.315Z,10.41
2023-11-13T19:54:43.859Z,10.43
2023-11-13T19:57:11.016Z,10.41
2023-11-13T19:59:39.503Z,10.48
2023-11-13T20:02:06.731Z,10.46
2023-11-13T20:04:34.503Z,10.47
2023-11-13T20:07:01.811Z,10.49
2023-11-13T20:09:31.119Z,10.43
2023-11-13T20:12:00.230Z,10.48
2023-11-13T20:14:27.333Z,10.63
2023-11-13T20:16:54.525Z,10.57
2023-11-13T20:19:21.705Z,10.52
2023-11-13T20:21:49.048Z,10.56
2023-11-13T20:24:16.174Z,10.48
2023-11-13T20:26:43.498Z,10.59
2023-11-13T20:29:10.669Z,10.61
2023-11-13T20:31:38.371Z,10.62
2023-11-13T20:34:05.473Z,10.67
2023-11-13T20:36:32.628Z,10.71
2023-11-13T20:39:00.561Z,10.75
2023-11-13T20:41:27.959Z,10.75
2023-11-13T20:43:57.766Z,10.71
2023-11-13T20:46:25.155Z,10.72
2023-11-13T20:48:52.396Z,10.74
2023-11-13T20:51:19.843Z,10.80
2023-11-13T20:53:47.005Z,10.81
2023-11-13T20:56:14.981Z,10.84
2023-11-13T20:58:42.893Z,10.83
2023-11-13T21:01:13.275Z,10.67
2023-11-13T21:03:40.490Z,10.75
2023-11-13T21:06:09.242Z,10.82
2023-11-13T21:08:36.434Z,10.83
2023-11-13T21:11:06.529Z,10.83
2023-11-13T21:13:33.846Z,10.86
2023-11-13T21:16:01.010Z,10.86
2023-11-13T21:18:29.435Z,10.83
2023-11-13T21:20:59.873Z,10.84
2023-11-13T21:23:27.216Z,10.77
2023-11-13T21:25:54.648Z,10.91
2023-11-13T21:28:22.096Z,10.81
2023-11-13T21:30:51.654Z,10.87
2023-11-13T21:33:20.777Z,10.83
2023-11-13T21:35:48.136Z,10.91
2023-11-13T21:38:15.250Z,10.89
2023-11-13T21:40:44.648Z,10.88
2023-11-13T21:43:11.932Z,10.99
2023-11-13T21:45:39.314Z,10.97
2023-11-13T21:48:06.839Z,11.06
2023-11-13T21:50:34.113Z,10.96
2023-11-13T21:53:02.498Z,11.04
2023-11-13T21:55:30.544Z,10.94
2023-11-13T21:57:58.492Z,10.95
2023-11-13T22:00:25.906Z,10.95
2023-11-13T22:02:53.867Z,11.04
2023-11-13T22:05:21.848Z,11.09
2023-11-13T22:07:49.182Z,11.15
2023-11-13T22:10:16.474Z,11.31
2023-11-13T22:12:43.766Z,11.31
2023-11-13T22:15:12.957Z,11.28
2023-11-13T22:17:40.725Z,11.23
2023-11-13T22:20:08.409Z,11.31
2023-11-13T22:22:36.701Z,11.42
2023-11-13T22:25:04.116Z,11.45
2023-11-13T22:27:32.537Z,11.48
2023-11-13T22:29:59.610Z,11.49
2023-11-13T22:32:26.741Z,11.48
2023-11-13T22:34:53.982Z,11.48
2023-11-13T22:37:21.158Z,11.48
2023-11-13T22:39:49.545Z,11.43
2023-11-13T22:42:16.871Z,11.38
2023-11-13T22:44:44.140Z,11.31
2023-11-13T22:47:12.790Z,11.27
2023-11-13T22:49:41.525Z,11.21
2023-11-13T22:52:08.668Z,11.18
2023-11-13T22:54:35.789Z,11.09
2023-11-13T22:57:03.357Z,11.02
2023-11-13T22:59:30.482Z,10.96
2023-11-13T23:01:57.755Z,10.89
2023-11-13T23:04:25.489Z,10.89
2023-11-13T23:06:52.602Z,10.81
2023-11-13T23:09:20.175Z,10.77
2023-11-13T23:11:47.548Z,10.67
2023-11-13T23:14:14.668Z,10.53
2023-11-13T23:16:41.961Z,10.28
2023-11-13T23:19:09.155Z,10.14
2023-11-13T23:21:41.264Z,10.06
2023-11-13T23:24:11.502Z,9.97
2023-11-13T23:26:38.587Z,9.92
2023-11-13T23:29:07.096Z,9.85
2023-11-13T23:31:34.644Z,9.80
2023-11-13T23:34:01.803Z,9.79
2023-11-13T23:36:28.891Z,9.77
2023-11-13T23:38:56.068Z,9.77
2023-11-13T23:41:23.247Z,9.77
2023-11-13T23:43:50.382Z,9.77
2023-11-13T23:46:17.571Z,9.78
2023-11-13T23:48:44.712Z,9.77
2023-11-13T23:51:12.424Z,9.77
2023-11-13T23:53:39.523Z,9.75
2023-11-13T23:56:06.832Z,9.72
2023-11-13T23:58:33.975Z,9.69
